sensor_id;sensor_type;location;lat;lon;timestamp;P1;durP1;ratioP1;P2;durP2;ratioP2
70132;SDS011;57495;49.922;7.966;2023-05-27T00:01:35;9.60;;;3.40;;
70132;SDS011;57495;49.922;7.966;2023-05-27T00:03:37;7.95;;;2.13;;
70132;SDS011;57495;49.922;7.966;2023-05-27T00:05:38;8.40;;;2.23;;
70132;SDS011;57495;49.922;7.966;2023-05-27T00:07:40;10.95;;;2.65;;
70132;SDS011;57495;49.922;7.966;2023-05-27T00:09:41;9.50;;;2.22;;
70132;SDS011;57495;49.922;7.966;2023-05-27T00:11:42;8.35;;;2.00;;
70132;SDS011;57495;49.922;7.966;2023-05-27T00:13:45;10.23;;;2.40;;
70132;SDS011;57495;49.922;7.966;2023-05-27T00:15:46;9.20;;;2.43;;
70132;SDS011;57495;49.922;7.966;2023-05-27T00:17:48;7.78;;;2.42;;
70132;SDS011;57495;49.922;7.966;2023-05-27T00:19:50;10.65;;;2.97;;
70132;SDS011;57495;49.922;7.966;2023-05-27T00:21:53;8.93;;;2.53;;
70132;SDS011;57495;49.922;7.966;2023-05-27T00:23:55;9.35;;;2.47;;
70132;SDS011;57495;49.922;7.966;2023-05-27T00:25:58;7.73;;;2.37;;
70132;SDS011;57495;49.922;7.966;2023-05-27T00:27:59;5.97;;;2.45;;
70132;SDS011;57495;49.922;7.966;2023-05-27T00:30:02;9.45;;;2.97;;
70132;SDS011;57495;49.922;7.966;2023-05-27T00:32:04;7.75;;;2.38;;
70132;SDS011;57495;49.922;7.966;2023-05-27T00:34:05;6.82;;;1.85;;
70132;SDS011;57495;49.922;7.966;2023-05-27T00:36:07;14.67;;;2.97;;
70132;SDS011;57495;49.922;7.966;2023-05-27T00:38:08;9.45;;;2.63;;
70132;SDS011;57495;49.922;7.966;2023-05-27T00:40:10;9.48;;;3.30;;
70132;SDS011;57495;49.922;7.966;2023-05-27T00:42:13;7.53;;;2.47;;
70132;SDS011;57495;49.922;7.966;2023-05-27T00:44:15;8.18;;;2.22;;
70132;SDS011;57495;49.922;7.966;2023-05-27T00:46:18;10.80;;;2.87;;
70132;SDS011;57495;49.922;7.966;2023-05-27T00:48:19;11.90;;;3.05;;
70132;SDS011;57495;49.922;7.966;2023-05-27T00:50:21;9.48;;;2.55;;
70132;SDS011;57495;49.922;7.966;2023-05-27T00:52:25;9.93;;;2.25;;
70132;SDS011;57495;49.922;7.966;2023-05-27T00:54:27;11.02;;;2.72;;
70132;SDS011;57495;49.922;7.966;2023-05-27T00:56:31;11.60;;;2.53;;
70132;SDS011;57495;49.922;7.966;2023-05-27T00:58:33;8.20;;;2.38;;
70132;SDS011;57495;49.922;7.966;2023-05-27T01:00:35;7.78;;;2.50;;
70132;SDS011;57495;49.922;7.966;2023-05-27T01:02:38;7.35;;;1.98;;
70132;SDS011;57495;49.922;7.966;2023-05-27T01:04:42;8.98;;;2.08;;
70132;SDS011;57495;49.922;7.966;2023-05-27T01:06:48;11.87;;;3.00;;
70132;SDS011;57495;49.922;7.966;2023-05-27T01:09:01;14.85;;;3.72;;
70132;SDS011;57495;49.922;7.966;2023-05-27T01:11:09;13.20;;;4.30;;
70132;SDS011;57495;49.922;7.966;2023-05-27T01:13:13;14.52;;;4.07;;
70132;SDS011;57495;49.922;7.966;2023-05-27T01:15:19;15.00;;;3.70;;
70132;SDS011;57495;49.922;7.966;2023-05-27T01:17:22;14.47;;;5.20;;
70132;SDS011;57495;49.922;7.966;2023-05-27T01:19:29;16.55;;;6.15;;
70132;SDS011;57495;49.922;7.966;2023-05-27T01:21:34;18.67;;;6.22;;
70132;SDS011;57495;49.922;7.966;2023-05-27T01:23:42;23.40;;;6.80;;
70132;SDS011;57495;49.922;7.966;2023-05-27T01:25:44;21.02;;;7.88;;
70132;SDS011;57495;49.922;7.966;2023-05-27T01:27:46;23.57;;;7.00;;
70132;SDS011;57495;49.922;7.966;2023-05-27T01:29:47;21.77;;;7.55;;
70132;SDS011;57495;49.922;7.966;2023-05-27T01:31:51;23.10;;;8.15;;
70132;SDS011;57495;49.922;7.966;2023-05-27T01:33:58;26.20;;;8.07;;
70132;SDS011;57495;49.922;7.966;2023-05-27T01:36:04;25.35;;;8.85;;
70132;SDS011;57495;49.922;7.966;2023-05-27T01:38:11;29.97;;;9.73;;
70132;SDS011;57495;49.922;7.966;2023-05-27T01:40:17;31.00;;;8.50;;
70132;SDS011;57495;49.922;7.966;2023-05-27T01:42:19;24.70;;;9.10;;
70132;SDS011;57495;49.922;7.966;2023-05-27T01:44:21;30.15;;;9.90;;
70132;SDS011;57495;49.922;7.966;2023-05-27T01:46:23;32.38;;;9.18;;
70132;SDS011;57495;49.922;7.966;2023-05-27T01:48:24;33.40;;;8.90;;
70132;SDS011;57495;49.922;7.966;2023-05-27T01:50:26;27.70;;;8.38;;
70132;SDS011;57495;49.922;7.966;2023-05-27T01:52:29;23.70;;;8.52;;
70132;SDS011;57495;49.922;7.966;2023-05-27T01:54:31;27.13;;;8.73;;
70132;SDS011;57495;49.922;7.966;2023-05-27T01:56:34;30.52;;;9.38;;
70132;SDS011;57495;49.922;7.966;2023-05-27T01:58:35;33.57;;;10.10;;
70132;SDS011;57495;49.922;7.966;2023-05-27T02:00:37;36.45;;;12.18;;
70132;SDS011;57495;49.922;7.966;2023-05-27T02:02:38;30.88;;;10.43;;
70132;SDS011;57495;49.922;7.966;2023-05-27T02:04:39;32.20;;;11.25;;
70132;SDS011;57495;49.922;7.966;2023-05-27T02:06:41;26.50;;;8.68;;
70132;SDS011;57495;49.922;7.966;2023-05-27T02:08:42;21.83;;;7.90;;
70132;SDS011;57495;49.922;7.966;2023-05-27T02:10:43;24.33;;;6.43;;
70132;SDS011;57495;49.922;7.966;2023-05-27T02:12:46;22.02;;;7.18;;
70132;SDS011;57495;49.922;7.966;2023-05-27T02:14:48;19.35;;;5.30;;
70132;SDS011;57495;49.922;7.966;2023-05-27T02:16:51;18.98;;;5.40;;
70132;SDS011;57495;49.922;7.966;2023-05-27T02:18:52;14.20;;;4.87;;
70132;SDS011;57495;49.922;7.966;2023-05-27T02:20:54;15.95;;;5.80;;
70132;SDS011;57495;49.922;7.966;2023-05-27T02:22:55;15.85;;;5.35;;
70132;SDS011;57495;49.922;7.966;2023-05-27T02:24:57;13.93;;;4.32;;
70132;SDS011;57495;49.922;7.966;2023-05-27T02:26:58;9.45;;;3.40;;
70132;SDS011;57495;49.922;7.966;2023-05-27T02:29:01;13.87;;;4.53;;
70132;SDS011;57495;49.922;7.966;2023-05-27T02:31:03;15.18;;;3.80;;
70132;SDS011;57495;49.922;7.966;2023-05-27T02:33:04;11.55;;;3.30;;
70132;SDS011;57495;49.922;7.966;2023-05-27T02:35:06;10.23;;;2.40;;
70132;SDS011;57495;49.922;7.966;2023-05-27T02:37:08;11.38;;;2.53;;
70132;SDS011;57495;49.922;7.966;2023-05-27T02:39:10;15.13;;;2.53;;
70132;SDS011;57495;49.922;7.966;2023-05-27T02:41:12;16.33;;;2.72;;
70132;SDS011;57495;49.922;7.966;2023-05-27T02:43:13;9.63;;;2.58;;
70132;SDS011;57495;49.922;7.966;2023-05-27T02:45:16;12.15;;;2.65;;
70132;SDS011;57495;49.922;7.966;2023-05-27T02:47:18;14.00;;;2.70;;
70132;SDS011;57495;49.922;7.966;2023-05-27T02:49:19;8.80;;;2.50;;
70132;SDS011;57495;49.922;7.966;2023-05-27T02:51:21;10.40;;;1.80;;
70132;SDS011;57495;49.922;7.966;2023-05-27T02:53:22;9.93;;;2.40;;
70132;SDS011;57495;49.922;7.966;2023-05-27T02:55:24;7.80;;;1.90;;
70132;SDS011;57495;49.922;7.966;2023-05-27T02:57:25;9.43;;;2.13;;
70132;SDS011;57495;49.922;7.966;2023-05-27T02:59:27;10.97;;;2.27;;
70132;SDS011;57495;49.922;7.966;2023-05-27T03:01:29;10.15;;;2.25;;
70132;SDS011;57495;49.922;7.966;2023-05-27T03:03:31;12.27;;;2.25;;
70132;SDS011;57495;49.922;7.966;2023-05-27T03:05:32;10.50;;;2.35;;
70132;SDS011;57495;49.922;7.966;2023-05-27T03:07:33;12.18;;;2.40;;
70132;SDS011;57495;49.922;7.966;2023-05-27T03:09:35;9.00;;;2.07;;
70132;SDS011;57495;49.922;7.966;2023-05-27T03:11:36;7.90;;;2.35;;
70132;SDS011;57495;49.922;7.966;2023-05-27T03:13:38;12.85;;;2.03;;
70132;SDS011;57495;49.922;7.966;2023-05-27T03:15:39;11.48;;;2.40;;
70132;SDS011;57495;49.922;7.966;2023-05-27T03:17:42;11.85;;;2.35;;
70132;SDS011;57495;49.922;7.966;2023-05-27T03:19:43;8.80;;;2.50;;
70132;SDS011;57495;49.922;7.966;2023-05-27T03:21:45;11.63;;;2.10;;
70132;SDS011;57495;49.922;7.966;2023-05-27T03:23:46;14.30;;;3.03;;
70132;SDS011;57495;49.922;7.966;2023-05-27T03:25:47;13.30;;;2.30;;
70132;SDS011;57495;49.922;7.966;2023-05-27T03:27:49;9.75;;;2.45;;
70132;SDS011;57495;49.922;7.966;2023-05-27T03:29:50;15.80;;;2.47;;
70132;SDS011;57495;49.922;7.966;2023-05-27T03:31:52;9.30;;;2.55;;
70132;SDS011;57495;49.922;7.966;2023-05-27T03:33:54;12.00;;;2.75;;
70132;SDS011;57495;49.922;7.966;2023-05-27T03:35:56;13.27;;;3.88;;
70132;SDS011;57495;49.922;7.966;2023-05-27T03:37:57;16.30;;;5.15;;
70132;SDS011;57495;49.922;7.966;2023-05-27T03:39:58;16.70;;;5.97;;
70132;SDS011;57495;49.922;7.966;2023-05-27T03:42:00;20.17;;;6.90;;
70132;SDS011;57495;49.922;7.966;2023-05-27T03:44:01;22.98;;;7.53;;
70132;SDS011;57495;49.922;7.966;2023-05-27T03:46:03;19.25;;;7.25;;
70132;SDS011;57495;49.922;7.966;2023-05-27T03:48:04;20.63;;;7.95;;
70132;SDS011;57495;49.922;7.966;2023-05-27T03:50:07;23.07;;;8.23;;
70132;SDS011;57495;49.922;7.966;2023-05-27T03:52:09;23.85;;;7.75;;
70132;SDS011;57495;49.922;7.966;2023-05-27T03:54:11;21.58;;;8.10;;
70132;SDS011;57495;49.922;7.966;2023-05-27T03:56:13;23.75;;;7.53;;
70132;SDS011;57495;49.922;7.966;2023-05-27T03:58:14;21.98;;;7.78;;
70132;SDS011;57495;49.922;7.966;2023-05-27T04:00:16;19.40;;;7.20;;
70132;SDS011;57495;49.922;7.966;2023-05-27T04:02:18;20.92;;;7.57;;
70132;SDS011;57495;49.922;7.966;2023-05-27T04:04:20;17.08;;;6.32;;
70132;SDS011;57495;49.922;7.966;2023-05-27T04:06:23;23.40;;;7.70;;
70132;SDS011;57495;49.922;7.966;2023-05-27T04:08:24;22.27;;;7.85;;
70132;SDS011;57495;49.922;7.966;2023-05-27T04:10:27;20.40;;;7.07;;
70132;SDS011;57495;49.922;7.966;2023-05-27T04:12:28;16.88;;;5.82;;
70132;SDS011;57495;49.922;7.966;2023-05-27T04:14:30;13.02;;;4.90;;
70132;SDS011;57495;49.922;7.966;2023-05-27T04:16:31;15.48;;;4.10;;
70132;SDS011;57495;49.922;7.966;2023-05-27T04:18:33;16.00;;;5.30;;
70132;SDS011;57495;49.922;7.966;2023-05-27T04:20:36;16.95;;;3.95;;
70132;SDS011;57495;49.922;7.966;2023-05-27T04:22:40;13.00;;;3.63;;
70132;SDS011;57495;49.922;7.966;2023-05-27T04:24:42;11.10;;;3.03;;
70132;SDS011;57495;49.922;7.966;2023-05-27T04:26:44;15.38;;;3.47;;
70132;SDS011;57495;49.922;7.966;2023-05-27T04:28:45;14.27;;;3.83;;
70132;SDS011;57495;49.922;7.966;2023-05-27T04:30:47;12.68;;;3.08;;
70132;SDS011;57495;49.922;7.966;2023-05-27T04:32:50;12.35;;;3.80;;
70132;SDS011;57495;49.922;7.966;2023-05-27T04:34:52;13.57;;;3.42;;
70132;SDS011;57495;49.922;7.966;2023-05-27T04:36:54;15.13;;;4.07;;
70132;SDS011;57495;49.922;7.966;2023-05-27T04:38:57;15.15;;;4.85;;
70132;SDS011;57495;49.922;7.966;2023-05-27T04:40:59;15.40;;;4.90;;
70132;SDS011;57495;49.922;7.966;2023-05-27T04:43:01;18.23;;;4.80;;
70132;SDS011;57495;49.922;7.966;2023-05-27T04:45:02;14.32;;;4.93;;
70132;SDS011;57495;49.922;7.966;2023-05-27T04:47:05;18.83;;;5.47;;
70132;SDS011;57495;49.922;7.966;2023-05-27T04:49:07;14.40;;;5.00;;
70132;SDS011;57495;49.922;7.966;2023-05-27T04:51:09;16.38;;;5.35;;
70132;SDS011;57495;49.922;7.966;2023-05-27T04:53:10;18.20;;;5.25;;
70132;SDS011;57495;49.922;7.966;2023-05-27T04:55:13;13.48;;;4.30;;
70132;SDS011;57495;49.922;7.966;2023-05-27T04:57:14;15.75;;;5.40;;
70132;SDS011;57495;49.922;7.966;2023-05-27T04:59:18;15.02;;;5.13;;
70132;SDS011;57495;49.922;7.966;2023-05-27T05:01:21;16.92;;;4.80;;
70132;SDS011;57495;49.922;7.966;2023-05-27T05:03:25;13.60;;;4.70;;
70132;SDS011;57495;49.922;7.966;2023-05-27T05:05:36;16.27;;;4.45;;
70132;SDS011;57495;49.922;7.966;2023-05-27T05:07:38;15.82;;;4.68;;
70132;SDS011;57495;49.922;7.966;2023-05-27T05:09:43;14.18;;;4.32;;
70132;SDS011;57495;49.922;7.966;2023-05-27T05:11:46;13.07;;;4.10;;
70132;SDS011;57495;49.922;7.966;2023-05-27T05:13:47;13.65;;;3.38;;
70132;SDS011;57495;49.922;7.966;2023-05-27T05:15:49;14.20;;;3.30;;
70132;SDS011;57495;49.922;7.966;2023-05-27T05:17:50;8.98;;;3.42;;
70132;SDS011;57495;49.922;7.966;2023-05-27T05:19:52;12.77;;;3.60;;
70132;SDS011;57495;49.922;7.966;2023-05-27T05:21:54;9.00;;;3.30;;
70132;SDS011;57495;49.922;7.966;2023-05-27T05:23:55;11.50;;;3.00;;
70132;SDS011;57495;49.922;7.966;2023-05-27T05:25:57;10.55;;;2.90;;
70132;SDS011;57495;49.922;7.966;2023-05-27T05:28:07;12.32;;;3.10;;
70132;SDS011;57495;49.922;7.966;2023-05-27T05:30:08;12.75;;;3.00;;
70132;SDS011;57495;49.922;7.966;2023-05-27T05:32:10;10.60;;;2.67;;
70132;SDS011;57495;49.922;7.966;2023-05-27T05:34:13;12.82;;;2.70;;
70132;SDS011;57495;49.922;7.966;2023-05-27T05:36:14;11.00;;;2.95;;
70132;SDS011;57495;49.922;7.966;2023-05-27T05:38:16;13.82;;;3.45;;
70132;SDS011;57495;49.922;7.966;2023-05-27T05:40:17;12.50;;;2.92;;
70132;SDS011;57495;49.922;7.966;2023-05-27T05:42:19;11.73;;;3.07;;
70132;SDS011;57495;49.922;7.966;2023-05-27T05:44:21;11.80;;;2.42;;
70132;SDS011;57495;49.922;7.966;2023-05-27T05:46:23;9.88;;;2.08;;
70132;SDS011;57495;49.922;7.966;2023-05-27T05:48:25;14.85;;;3.10;;
70132;SDS011;57495;49.922;7.966;2023-05-27T05:50:26;9.95;;;2.53;;
70132;SDS011;57495;49.922;7.966;2023-05-27T05:52:27;11.53;;;2.70;;
70132;SDS011;57495;49.922;7.966;2023-05-27T05:54:29;9.93;;;2.33;;
70132;SDS011;57495;49.922;7.966;2023-05-27T05:56:31;11.85;;;3.20;;
70132;SDS011;57495;49.922;7.966;2023-05-27T05:58:33;12.15;;;3.05;;
70132;SDS011;57495;49.922;7.966;2023-05-27T06:00:36;9.82;;;2.60;;
70132;SDS011;57495;49.922;7.966;2023-05-27T06:02:37;9.13;;;2.60;;
70132;SDS011;57495;49.922;7.966;2023-05-27T06:04:38;13.20;;;3.00;;
70132;SDS011;57495;49.922;7.966;2023-05-27T06:06:40;9.45;;;2.75;;
70132;SDS011;57495;49.922;7.966;2023-05-27T06:08:41;9.07;;;1.95;;
70132;SDS011;57495;49.922;7.966;2023-05-27T06:10:43;12.02;;;2.70;;
70132;SDS011;57495;49.922;7.966;2023-05-27T06:12:45;12.97;;;3.03;;
70132;SDS011;57495;49.922;7.966;2023-05-27T06:14:46;6.90;;;2.20;;
70132;SDS011;57495;49.922;7.966;2023-05-27T06:16:49;16.50;;;2.72;;
70132;SDS011;57495;49.922;7.966;2023-05-27T06:18:50;13.13;;;3.22;;
70132;SDS011;57495;49.922;7.966;2023-05-27T06:20:52;12.73;;;3.15;;
70132;SDS011;57495;49.922;7.966;2023-05-27T06:22:53;12.77;;;3.17;;
70132;SDS011;57495;49.922;7.966;2023-05-27T06:24:55;11.45;;;2.72;;
70132;SDS011;57495;49.922;7.966;2023-05-27T06:26:56;13.00;;;3.25;;
70132;SDS011;57495;49.922;7.966;2023-05-27T06:28:57;12.23;;;3.47;;
70132;SDS011;57495;49.922;7.966;2023-05-27T06:30:59;11.07;;;3.00;;
70132;SDS011;57495;49.922;7.966;2023-05-27T06:33:02;13.07;;;3.00;;
70132;SDS011;57495;49.922;7.966;2023-05-27T06:35:03;10.40;;;2.83;;
70132;SDS011;57495;49.922;7.966;2023-05-27T06:37:06;11.70;;;3.20;;
70132;SDS011;57495;49.922;7.966;2023-05-27T06:39:07;10.15;;;2.97;;
70132;SDS011;57495;49.922;7.966;2023-05-27T06:41:09;8.75;;;2.20;;
70132;SDS011;57495;49.922;7.966;2023-05-27T06:43:10;11.63;;;2.43;;
70132;SDS011;57495;49.922;7.966;2023-05-27T06:45:11;11.85;;;2.58;;
70132;SDS011;57495;49.922;7.966;2023-05-27T06:47:13;9.75;;;2.15;;
70132;SDS011;57495;49.922;7.966;2023-05-27T06:49:15;9.63;;;2.45;;
70132;SDS011;57495;49.922;7.966;2023-05-27T06:51:17;7.97;;;2.22;;
70132;SDS011;57495;49.922;7.966;2023-05-27T06:53:19;9.67;;;1.97;;
70132;SDS011;57495;49.922;7.966;2023-05-27T06:55:20;10.00;;;2.50;;
70132;SDS011;57495;49.922;7.966;2023-05-27T06:57:22;7.53;;;1.55;;
70132;SDS011;57495;49.922;7.966;2023-05-27T06:59:24;11.15;;;2.17;;
70132;SDS011;57495;49.922;7.966;2023-05-27T07:01:25;11.63;;;2.40;;
70132;SDS011;57495;49.922;7.966;2023-05-27T07:03:26;12.60;;;2.47;;
70132;SDS011;57495;49.922;7.966;2023-05-27T07:05:29;11.52;;;3.10;;
70132;SDS011;57495;49.922;7.966;2023-05-27T07:07:30;11.57;;;1.95;;
70132;SDS011;57495;49.922;7.966;2023-05-27T07:09:32;8.20;;;2.15;;
70132;SDS011;57495;49.922;7.966;2023-05-27T07:11:33;10.55;;;2.05;;
70132;SDS011;57495;49.922;7.966;2023-05-27T07:13:35;10.13;;;2.60;;
70132;SDS011;57495;49.922;7.966;2023-05-27T07:15:36;10.35;;;2.78;;
70132;SDS011;57495;49.922;7.966;2023-05-27T07:17:37;14.15;;;3.17;;
70132;SDS011;57495;49.922;7.966;2023-05-27T07:19:39;10.63;;;2.47;;
70132;SDS011;57495;49.922;7.966;2023-05-27T07:21:41;14.05;;;2.47;;
70132;SDS011;57495;49.922;7.966;2023-05-27T07:23:43;8.83;;;2.17;;
70132;SDS011;57495;49.922;7.966;2023-05-27T07:25:44;11.15;;;2.40;;
70132;SDS011;57495;49.922;7.966;2023-05-27T07:27:46;11.60;;;2.38;;
70132;SDS011;57495;49.922;7.966;2023-05-27T07:29:48;9.55;;;2.20;;
70132;SDS011;57495;49.922;7.966;2023-05-27T07:31:49;11.15;;;2.63;;
70132;SDS011;57495;49.922;7.966;2023-05-27T07:33:51;12.27;;;2.60;;
70132;SDS011;57495;49.922;7.966;2023-05-27T07:35:52;7.88;;;2.30;;
70132;SDS011;57495;49.922;7.966;2023-05-27T07:37:55;7.72;;;2.25;;
70132;SDS011;57495;49.922;7.966;2023-05-27T07:39:56;8.88;;;2.20;;
70132;SDS011;57495;49.922;7.966;2023-05-27T07:41:58;10.77;;;2.65;;
70132;SDS011;57495;49.922;7.966;2023-05-27T07:43:59;9.53;;;2.83;;
70132;SDS011;57495;49.922;7.966;2023-05-27T07:46:01;9.18;;;2.13;;
70132;SDS011;57495;49.922;7.966;2023-05-27T07:48:02;9.77;;;2.35;;
70132;SDS011;57495;49.922;7.966;2023-05-27T07:50:04;8.75;;;2.05;;
70132;SDS011;57495;49.922;7.966;2023-05-27T07:52:06;8.85;;;2.05;;
70132;SDS011;57495;49.922;7.966;2023-05-27T07:54:09;8.33;;;2.67;;
70132;SDS011;57495;49.922;7.966;2023-05-27T07:56:10;8.77;;;2.40;;
70132;SDS011;57495;49.922;7.966;2023-05-27T07:58:12;11.80;;;3.03;;
70132;SDS011;57495;49.922;7.966;2023-05-27T08:00:13;10.63;;;2.75;;
70132;SDS011;57495;49.922;7.966;2023-05-27T08:02:15;13.32;;;3.17;;
70132;SDS011;57495;49.922;7.966;2023-05-27T08:04:16;8.70;;;2.60;;
70132;SDS011;57495;49.922;7.966;2023-05-27T08:06:18;10.13;;;2.40;;
70132;SDS011;57495;49.922;7.966;2023-05-27T08:08:19;9.32;;;2.20;;
70132;SDS011;57495;49.922;7.966;2023-05-27T08:10:22;10.48;;;2.75;;
70132;SDS011;57495;49.922;7.966;2023-05-27T08:12:23;10.38;;;2.40;;
70132;SDS011;57495;49.922;7.966;2023-05-27T08:14:25;9.27;;;2.17;;
70132;SDS011;57495;49.922;7.966;2023-05-27T08:16:27;10.60;;;2.92;;
70132;SDS011;57495;49.922;7.966;2023-05-27T08:18:28;8.95;;;2.50;;
70132;SDS011;57495;49.922;7.966;2023-05-27T08:20:30;11.43;;;2.65;;
70132;SDS011;57495;49.922;7.966;2023-05-27T08:22:31;10.27;;;2.53;;
70132;SDS011;57495;49.922;7.966;2023-05-27T08:24:33;9.87;;;2.83;;
70132;SDS011;57495;49.922;7.966;2023-05-27T08:26:35;9.35;;;2.83;;
70132;SDS011;57495;49.922;7.966;2023-05-27T08:28:37;10.40;;;3.28;;
70132;SDS011;57495;49.922;7.966;2023-05-27T08:30:38;10.93;;;2.95;;
70132;SDS011;57495;49.922;7.966;2023-05-27T08:32:40;13.43;;;2.53;;
70132;SDS011;57495;49.922;7.966;2023-05-27T08:34:41;10.77;;;3.20;;
70132;SDS011;57495;49.922;7.966;2023-05-27T08:36:43;10.95;;;3.05;;
70132;SDS011;57495;49.922;7.966;2023-05-27T08:38:44;11.85;;;2.67;;
70132;SDS011;57495;49.922;7.966;2023-05-27T08:40:46;13.02;;;2.72;;
70132;SDS011;57495;49.922;7.966;2023-05-27T08:42:49;10.15;;;2.75;;
70132;SDS011;57495;49.922;7.966;2023-05-27T08:44:51;13.83;;;2.40;;
70132;SDS011;57495;49.922;7.966;2023-05-27T08:46:52;10.45;;;2.78;;
70132;SDS011;57495;49.922;7.966;2023-05-27T08:48:55;12.57;;;3.33;;
70132;SDS011;57495;49.922;7.966;2023-05-27T08:50:57;7.97;;;2.63;;
70132;SDS011;57495;49.922;7.966;2023-05-27T08:52:59;13.40;;;2.83;;
70132;SDS011;57495;49.922;7.966;2023-05-27T08:55:03;11.97;;;2.60;;
70132;SDS011;57495;49.922;7.966;2023-05-27T08:57:06;13.50;;;2.80;;
70132;SDS011;57495;49.922;7.966;2023-05-27T08:59:09;13.60;;;2.83;;
70132;SDS011;57495;49.922;7.966;2023-05-27T09:01:12;12.68;;;3.03;;
70132;SDS011;57495;49.922;7.966;2023-05-27T09:03:17;12.63;;;3.10;;
70132;SDS011;57495;49.922;7.966;2023-05-27T09:05:19;12.03;;;2.97;;
70132;SDS011;57495;49.922;7.966;2023-05-27T09:07:20;12.00;;;3.40;;
70132;SDS011;57495;49.922;7.966;2023-05-27T09:09:22;11.60;;;3.30;;
70132;SDS011;57495;49.922;7.966;2023-05-27T09:11:24;12.38;;;3.42;;
70132;SDS011;57495;49.922;7.966;2023-05-27T09:13:27;10.75;;;2.85;;
70132;SDS011;57495;49.922;7.966;2023-05-27T09:15:31;12.03;;;2.87;;
70132;SDS011;57495;49.922;7.966;2023-05-27T09:17:33;9.93;;;2.58;;
70132;SDS011;57495;49.922;7.966;2023-05-27T09:19:35;8.77;;;3.20;;
70132;SDS011;57495;49.922;7.966;2023-05-27T09:21:37;11.95;;;3.35;;
70132;SDS011;57495;49.922;7.966;2023-05-27T09:23:39;12.80;;;3.70;;
70132;SDS011;57495;49.922;7.966;2023-05-27T09:25:40;10.07;;;2.80;;
70132;SDS011;57495;49.922;7.966;2023-05-27T09:27:43;11.85;;;2.80;;
70132;SDS011;57495;49.922;7.966;2023-05-27T09:29:45;11.15;;;3.33;;
70132;SDS011;57495;49.922;7.966;2023-05-27T09:31:47;11.93;;;3.35;;
70132;SDS011;57495;49.922;7.966;2023-05-27T09:33:49;9.63;;;2.70;;
70132;SDS011;57495;49.922;7.966;2023-05-27T09:35:51;14.23;;;3.17;;
70132;SDS011;57495;49.922;7.966;2023-05-27T09:37:52;12.60;;;2.95;;
70132;SDS011;57495;49.922;7.966;2023-05-27T09:39:53;13.85;;;3.13;;
70132;SDS011;57495;49.922;7.966;2023-05-27T09:41:55;9.77;;;2.47;;
70132;SDS011;57495;49.922;7.966;2023-05-27T09:43:59;12.50;;;3.13;;
70132;SDS011;57495;49.922;7.966;2023-05-27T09:46:03;10.07;;;2.50;;
70132;SDS011;57495;49.922;7.966;2023-05-27T09:48:09;13.90;;;3.25;;
70132;SDS011;57495;49.922;7.966;2023-05-27T09:50:13;13.27;;;2.88;;
70132;SDS011;57495;49.922;7.966;2023-05-27T09:52:15;9.70;;;3.05;;
70132;SDS011;57495;49.922;7.966;2023-05-27T09:54:20;13.55;;;3.55;;
70132;SDS011;57495;49.922;7.966;2023-05-27T09:56:23;12.93;;;3.43;;
70132;SDS011;57495;49.922;7.966;2023-05-27T09:58:24;10.68;;;2.95;;
70132;SDS011;57495;49.922;7.966;2023-05-27T10:00:26;10.48;;;2.88;;
70132;SDS011;57495;49.922;7.966;2023-05-27T10:02:28;10.38;;;3.15;;
70132;SDS011;57495;49.922;7.966;2023-05-27T10:04:32;16.08;;;3.75;;
70132;SDS011;57495;49.922;7.966;2023-05-27T10:06:34;9.53;;;3.07;;
70132;SDS011;57495;49.922;7.966;2023-05-27T10:08:36;11.38;;;2.90;;
70132;SDS011;57495;49.922;7.966;2023-05-27T10:10:38;19.70;;;4.10;;
70132;SDS011;57495;49.922;7.966;2023-05-27T10:12:39;16.80;;;3.45;;
70132;SDS011;57495;49.922;7.966;2023-05-27T10:14:42;10.88;;;2.92;;
70132;SDS011;57495;49.922;7.966;2023-05-27T10:16:50;12.67;;;2.63;;
70132;SDS011;57495;49.922;7.966;2023-05-27T10:18:54;10.02;;;2.70;;
70132;SDS011;57495;49.922;7.966;2023-05-27T10:20:58;16.42;;;3.88;;
70132;SDS011;57495;49.922;7.966;2023-05-27T10:23:10;11.52;;;3.45;;
70132;SDS011;57495;49.922;7.966;2023-05-27T10:25:13;13.10;;;3.30;;
70132;SDS011;57495;49.922;7.966;2023-05-27T10:27:16;10.37;;;2.90;;
70132;SDS011;57495;49.922;7.966;2023-05-27T10:29:17;14.40;;;3.05;;
70132;SDS011;57495;49.922;7.966;2023-05-27T10:31:19;12.18;;;4.03;;
70132;SDS011;57495;49.922;7.966;2023-05-27T10:33:27;12.90;;;3.78;;
70132;SDS011;57495;49.922;7.966;2023-05-27T10:35:38;10.57;;;3.10;;
70132;SDS011;57495;49.922;7.966;2023-05-27T10:37:42;11.53;;;3.77;;
70132;SDS011;57495;49.922;7.966;2023-05-27T10:39:52;12.05;;;3.22;;
70132;SDS011;57495;49.922;7.966;2023-05-27T10:41:55;12.93;;;3.63;;
70132;SDS011;57495;49.922;7.966;2023-05-27T10:43:57;49.80;;;36.80;;
70132;SDS011;57495;49.922;7.966;2023-05-27T10:46:03;109.80;;;50.40;;
70132;SDS011;57495;49.922;7.966;2023-05-27T10:48:14;22.43;;;10.83;;
70132;SDS011;57495;49.922;7.966;2023-05-27T10:50:16;268.63;;;212.75;;
70132;SDS011;57495;49.922;7.966;2023-05-27T10:52:17;241.52;;;216.65;;
70132;SDS011;57495;49.922;7.966;2023-05-27T10:54:20;273.02;;;227.52;;
70132;SDS011;57495;49.922;7.966;2023-05-27T10:56:26;431.55;;;382.88;;
70132;SDS011;57495;49.922;7.966;2023-05-27T10:58:27;655.00;;;567.60;;
70132;SDS011;57495;49.922;7.966;2023-05-27T11:00:29;396.40;;;358.38;;
70132;SDS011;57495;49.922;7.966;2023-05-27T11:02:31;28.27;;;24.10;;
70132;SDS011;57495;49.922;7.966;2023-05-27T11:04:35;31.95;;;27.85;;
70132;SDS011;57495;49.922;7.966;2023-05-27T11:06:36;325.10;;;304.17;;
70132;SDS011;57495;49.922;7.966;2023-05-27T11:08:37;165.30;;;154.33;;
70132;SDS011;57495;49.922;7.966;2023-05-27T11:10:41;19.10;;;12.68;;
70132;SDS011;57495;49.922;7.966;2023-05-27T11:12:43;18.80;;;6.72;;
70132;SDS011;57495;49.922;7.966;2023-05-27T11:14:46;18.17;;;13.65;;
70132;SDS011;57495;49.922;7.966;2023-05-27T11:16:49;14.95;;;9.15;;
70132;SDS011;57495;49.922;7.966;2023-05-27T11:18:51;22.43;;;15.00;;
70132;SDS011;57495;49.922;7.966;2023-05-27T11:20:53;14.80;;;4.72;;
70132;SDS011;57495;49.922;7.966;2023-05-27T11:22:58;13.63;;;3.88;;
70132;SDS011;57495;49.922;7.966;2023-05-27T11:24:59;10.75;;;3.30;;
70132;SDS011;57495;49.922;7.966;2023-05-27T11:27:08;10.48;;;3.88;;
70132;SDS011;57495;49.922;7.966;2023-05-27T11:29:10;9.43;;;3.77;;
70132;SDS011;57495;49.922;7.966;2023-05-27T11:31:12;9.95;;;3.35;;
70132;SDS011;57495;49.922;7.966;2023-05-27T11:33:14;10.40;;;3.50;;
70132;SDS011;57495;49.922;7.966;2023-05-27T11:35:16;16.17;;;4.45;;
70132;SDS011;57495;49.922;7.966;2023-05-27T11:37:18;11.80;;;4.05;;
70132;SDS011;57495;49.922;7.966;2023-05-27T11:39:20;15.83;;;5.23;;
70132;SDS011;57495;49.922;7.966;2023-05-27T11:41:22;11.68;;;3.60;;
70132;SDS011;57495;49.922;7.966;2023-05-27T11:43:26;11.90;;;3.42;;
70132;SDS011;57495;49.922;7.966;2023-05-27T11:45:27;12.63;;;3.75;;
70132;SDS011;57495;49.922;7.966;2023-05-27T11:47:30;12.93;;;4.40;;
70132;SDS011;57495;49.922;7.966;2023-05-27T11:49:31;14.30;;;4.00;;
70132;SDS011;57495;49.922;7.966;2023-05-27T11:51:36;10.32;;;3.40;;
70132;SDS011;57495;49.922;7.966;2023-05-27T11:53:39;10.23;;;3.90;;
70132;SDS011;57495;49.922;7.966;2023-05-27T11:55:41;11.75;;;3.33;;
70132;SDS011;57495;49.922;7.966;2023-05-27T11:57:46;10.55;;;3.35;;
70132;SDS011;57495;49.922;7.966;2023-05-27T11:59:49;14.97;;;3.40;;
70132;SDS011;57495;49.922;7.966;2023-05-27T12:01:52;10.32;;;3.38;;
70132;SDS011;57495;49.922;7.966;2023-05-27T12:03:54;11.98;;;3.42;;
70132;SDS011;57495;49.922;7.966;2023-05-27T12:05:55;11.85;;;3.40;;
70132;SDS011;57495;49.922;7.966;2023-05-27T12:07:56;11.35;;;3.65;;